createdAt,value
2023-02-16T00:00:22.968Z,4.10
2023-02-16T00:02:49.897Z,4.10
2023-02-16T00:05:29.192Z,4.10
2023-02-16T00:07:57.366Z,4.10
2023-02-16T00:10:26.149Z,4.10
2023-02-16T00:13:12.285Z,4.10
2023-02-16T00:15:40.240Z,4.00
2023-02-16T00:18:18.659Z,4.00
2023-02-16T00:20:46.285Z,4.00
2023-02-16T00:23:13.166Z,4.00
2023-02-16T00:25:40.273Z,3.90
2023-02-16T00:28:19.586Z,3.90
2023-02-16T00:30:47.429Z,4.00
2023-02-16T00:33:16.579Z,4.00
2023-02-16T00:35:44.658Z,4.00
2023-02-16T00:38:13.043Z,4.00
2023-02-16T00:40:41.739Z,4.20
2023-02-16T00:43:24.075Z,4.20
2023-02-16T00:45:51.286Z,4.30
2023-02-16T00:48:18.123Z,4.20
2023-02-16T00:50:45.227Z,4.20
2023-02-16T00:53:13.486Z,4.20
2023-02-16T00:55:42.552Z,4.20
2023-02-16T00:58:25.514Z,4.30
2023-02-16T01:00:55.269Z,4.30
2023-02-16T01:03:25.723Z,4.20
2023-02-16T01:06:11.721Z,4.30
2023-02-16T01:08:57.062Z,4.20
2023-02-16T01:11:25.666Z,4.20
2023-02-16T01:13:54.722Z,4.20
2023-02-16T01:16:33.241Z,4.00
2023-02-16T01:19:00.197Z,3.90
2023-02-16T01:21:27.053Z,3.90
2023-02-16T01:23:53.904Z,3.90
2023-02-16T01:26:22.100Z,3.90
2023-02-16T01:28:49.644Z,3.90
2023-02-16T01:31:17.500Z,3.90
2023-02-16T01:33:44.526Z,3.90
2023-02-16T01:36:36.451Z,3.90
2023-02-16T01:39:05.941Z,3.90
2023-02-16T01:41:41.686Z,4.00
2023-02-16T01:44:16.383Z,4.00
2023-02-16T01:47:07.840Z,4.10
2023-02-16T01:49:37.308Z,4.10
2023-02-16T01:52:34.645Z,4.20
2023-02-16T01:55:07.237Z,4.30
2023-02-16T01:57:49.367Z,4.20
2023-02-16T02:00:49.736Z,4.20
2023-02-16T02:03:53.798Z,4.20
2023-02-16T02:06:27.064Z,4.20
2023-02-16T02:09:02.142Z,4.30
2023-02-16T02:11:57.418Z,4.30
2023-02-16T02:14:32.990Z,4.30
2023-02-16T02:17:04.030Z,4.30
2023-02-16T02:20:01.244Z,4.20
2023-02-16T02:23:01.573Z,4.20
2023-02-16T02:26:10.301Z,4.10
2023-02-16T02:28:43.008Z,4.10
2023-02-16T02:31:31.152Z,4.00
2023-02-16T02:34:29.791Z,3.90
2023-02-16T02:37:16.897Z,3.90
2023-02-16T02:39:53.579Z,3.90
2023-02-16T02:42:32.429Z,4.00
2023-02-16T02:45:09.457Z,4.00
2023-02-16T02:47:46.138Z,4.00
2023-02-16T02:51:06.798Z,3.90
2023-02-16T02:54:11.118Z,3.90
2023-02-16T02:56:59.996Z,3.80
2023-02-16T02:59:48.557Z,3.90
2023-02-16T03:02:18.065Z,3.90
2023-02-16T03:04:46.798Z,3.90
2023-02-16T03:07:15.177Z,3.90
2023-02-16T03:09:42.100Z,3.90
2023-02-16T03:12:46.057Z,3.90
2023-02-16T03:15:14.449Z,3.90
2023-02-16T03:18:00.517Z,3.80
2023-02-16T03:20:45.985Z,3.80
2023-02-16T03:23:31.537Z,3.90
2023-02-16T03:26:16.822Z,4.00
2023-02-16T03:29:04.925Z,4.10
2023-02-16T03:31:35.734Z,4.10
2023-02-16T03:34:03.277Z,4.00
2023-02-16T03:36:33.094Z,4.00
2023-02-16T03:39:00.574Z,4.00
2023-02-16T03:41:33.042Z,3.90
2023-02-16T03:43:59.997Z,3.90
2023-02-16T03:46:26.880Z,3.80
2023-02-16T03:48:53.741Z,3.90
2023-02-16T03:51:21.001Z,3.80
2023-02-16T03:53:47.895Z,3.70
2023-02-16T03:56:14.736Z,3.90
2023-02-16T03:58:41.758Z,3.80
2023-02-16T04:01:08.724Z,3.80
2023-02-16T04:03:35.562Z,3.90
2023-02-16T04:06:02.783Z,3.80
2023-02-16T04:08:29.806Z,3.70
2023-02-16T04:10:57.538Z,3.70
2023-02-16T04:13:24.918Z,3.60
2023-02-16T04:15:52.153Z,3.50
2023-02-16T04:18:19.096Z,3.50
2023-02-16T04:20:45.873Z,3.40
2023-02-16T04:23:12.749Z,3.30
2023-02-16T04:25:39.617Z,3.30
2023-02-16T04:28:06.454Z,3.50
2023-02-16T04:30:33.540Z,3.50
2023-02-16T04:33:00.631Z,3.60
2023-02-16T04:35:27.667Z,3.50
2023-02-16T04:37:54.551Z,3.50
2023-02-16T04:40:21.513Z,3.40
2023-02-16T04:42:48.486Z,3.50
2023-02-16T04:45:15.550Z,3.50
2023-02-16T04:47:42.710Z,3.50
2023-02-16T04:50:10.255Z,3.60
2023-02-16T04:52:37.785Z,3.90
2023-02-16T04:55:05.863Z,3.90
2023-02-16T04:57:32.928Z,3.90
2023-02-16T04:59:59.761Z,3.90
2023-02-16T05:02:26.627Z,4.00
2023-02-16T05:04:53.534Z,4.00
2023-02-16T05:07:20.430Z,4.00
2023-02-16T05:09:47.325Z,4.00
2023-02-16T05:12:32.781Z,3.90
2023-02-16T05:14:59.595Z,3.90
2023-02-16T05:17:27.407Z,3.80
2023-02-16T05:19:59.304Z,3.70
2023-02-16T05:22:28.609Z,3.80
2023-02-16T05:24:55.446Z,3.70
2023-02-16T05:27:25.500Z,3.70
2023-02-16T05:29:52.676Z,3.70
2023-02-16T05:32:20.425Z,3.70
2023-02-16T05:34:47.742Z,3.50
2023-02-16T05:37:17.207Z,3.40
2023-02-16T05:39:44.923Z,3.30
2023-02-16T05:42:12.079Z,3.30
2023-02-16T05:44:39.061Z,3.30
2023-02-16T05:47:06.008Z,3.30
2023-02-16T05:49:32.881Z,3.30
2023-02-16T05:51:59.848Z,3.30
2023-02-16T05:54:28.034Z,3.30
2023-02-16T05:56:55.117Z,3.30
2023-02-16T05:59:22.298Z,3.40
2023-02-16T06:01:51.867Z,3.40
2023-02-16T06:04:20.848Z,3.30
2023-02-16T06:06:47.846Z,3.20
2023-02-16T06:09:15.037Z,3.20
2023-02-16T06:11:42.320Z,3.20
2023-02-16T06:14:15.946Z,3.30
2023-02-16T06:16:44.810Z,3.30
2023-02-16T06:19:13.452Z,3.30
2023-02-16T06:21:40.899Z,3.20
2023-02-16T06:24:09.602Z,3.20
2023-02-16T06:26:36.809Z,3.30
2023-02-16T06:29:04.298Z,3.30
2023-02-16T06:31:31.405Z,3.30
2023-02-16T06:33:58.526Z,3.40
2023-02-16T06:36:25.589Z,3.40
2023-02-16T06:38:53.403Z,3.30
2023-02-16T06:41:35.683Z,3.30
2023-02-16T06:44:05.667Z,3.40
2023-02-16T06:46:32.937Z,3.50
2023-02-16T06:49:00.830Z,3.70
2023-02-16T06:51:27.702Z,3.80
2023-02-16T06:53:54.523Z,3.80
2023-02-16T06:56:21.710Z,3.90
2023-02-16T06:58:48.754Z,3.90
2023-02-16T07:01:22.863Z,4.00
2023-02-16T07:03:51.029Z,4.00
2023-02-16T07:06:18.503Z,4.00
2023-02-16T07:08:45.556Z,4.00
2023-02-16T07:11:13.030Z,4.00
2023-02-16T07:13:40.371Z,4.10
2023-02-16T07:16:07.630Z,4.10
2023-02-16T07:18:34.989Z,4.20
2023-02-16T07:21:02.876Z,4.10
2023-02-16T07:23:30.197Z,4.10
2023-02-16T07:25:57.022Z,4.00
2023-02-16T07:28:23.950Z,4.00
2023-02-16T07:30:51.137Z,4.10
2023-02-16T07:33:18.781Z,4.10
2023-02-16T07:35:45.618Z,4.30
2023-02-16T07:38:12.709Z,4.40
2023-02-16T07:40:39.779Z,4.60
2023-02-16T07:43:06.835Z,4.70
2023-02-16T07:45:34.159Z,4.90
2023-02-16T07:48:01.696Z,5.00
2023-02-16T07:50:28.841Z,5.10
2023-02-16T07:52:55.667Z,5.20
2023-02-16T07:55:22.579Z,5.40
2023-02-16T07:57:52.911Z,5.50
2023-02-16T08:00:20.469Z,5.70
2023-02-16T08:02:47.390Z,5.80
2023-02-16T08:05:14.518Z,5.90
2023-02-16T08:07:41.960Z,6.00
2023-02-16T08:10:09.528Z,6.10
2023-02-16T08:12:37.260Z,6.10
2023-02-16T08:15:04.549Z,6.20
2023-02-16T08:17:31.358Z,6.20
2023-02-16T08:19:58.192Z,6.30
2023-02-16T08:22:25.062Z,6.30
2023-02-16T08:24:51.923Z,6.30
2023-02-16T08:27:18.776Z,6.30
2023-02-16T08:29:45.782Z,6.30
2023-02-16T08:32:14.696Z,6.20
2023-02-16T08:34:43.320Z,6.10
2023-02-16T08:37:13.340Z,6.10
2023-02-16T08:39:40.655Z,6.00
2023-02-16T08:42:08.437Z,6.00
2023-02-16T08:44:35.381Z,6.00
2023-02-16T08:47:02.788Z,6.00
2023-02-16T08:49:29.704Z,6.00
2023-02-16T08:51:58.622Z,6.00
2023-02-16T08:54:29.067Z,6.20
2023-02-16T08:56:57.435Z,6.20
2023-02-16T08:59:28.311Z,6.20
2023-02-16T09:01:57.071Z,6.20
2023-02-16T09:04:25.840Z,6.20
2023-02-16T09:06:53.438Z,6.30
2023-02-16T09:09:20.510Z,6.30
2023-02-16T09:11:48.170Z,6.40
2023-02-16T09:14:17.580Z,6.40
2023-02-16T09:16:48.062Z,6.60
2023-02-16T09:19:21.729Z,6.60
2023-02-16T09:21:50.945Z,6.70
2023-02-16T09:24:19.194Z,6.70
2023-02-16T09:26:46.268Z,6.80
2023-02-16T09:29:15.400Z,7.00
2023-02-16T09:31:44.376Z,7.10
2023-02-16T09:34:23.265Z,7.20
2023-02-16T09:36:50.663Z,7.30
2023-02-16T09:39:19.143Z,7.30
2023-02-16T09:42:06.504Z,7.30
2023-02-16T09:44:39.321Z,7.30
2023-02-16T09:47:36.070Z,7.50
2023-02-16T09:50:50.405Z,7.50
2023-02-16T09:53:39.552Z,7.60
2023-02-16T09:56:22.643Z,7.80
2023-02-16T09:59:15.995Z,8.00
2023-02-16T10:02:01.747Z,8.00
2023-02-16T10:04:50.331Z,7.90
2023-02-16T10:07:47.560Z,7.80
2023-02-16T10:10:21.138Z,7.60
2023-02-16T10:12:56.393Z,7.60
2023-02-16T10:15:29.662Z,7.60
2023-02-16T10:18:08.454Z,7.70
2023-02-16T10:20:39.322Z,7.70
2023-02-16T10:23:41.601Z,7.60
2023-02-16T10:26:35.229Z,7.60
2023-02-16T10:29:14.429Z,7.70
2023-02-16T10:31:44.945Z,7.60
2023-02-16T10:34:39.339Z,7.60
2023-02-16T10:37:12.353Z,7.50
2023-02-16T10:39:57.563Z,7.40
2023-02-16T10:42:27.201Z,7.50
2023-02-16T10:45:05.345Z,7.60
2023-02-16T10:47:41.925Z,7.80
2023-02-16T10:50:19.252Z,7.70
2023-02-16T10:52:46.225Z,7.70
2023-02-16T10:55:13.500Z,7.70
2023-02-16T10:57:40.483Z,7.80
2023-02-16T11:00:12.336Z,7.90
2023-02-16T11:02:45.447Z,8.00
2023-02-16T11:05:29.238Z,8.00
2023-02-16T11:07:58.005Z,8.00
2023-02-16T11:10:52.349Z,8.10
2023-02-16T11:13:25.941Z,8.00
2023-02-16T11:15:55.989Z,8.10
2023-02-16T11:18:45.403Z,8.20
2023-02-16T11:21:13.333Z,8.40
2023-02-16T11:23:42.669Z,8.50
2023-02-16T11:26:12.500Z,8.70
2023-02-16T11:28:41.007Z,8.80
2023-02-16T11:31:34.365Z,8.80
2023-02-16T11:34:16.880Z,9.00
2023-02-16T11:36:46.118Z,9.00
2023-02-16T11:39:27.581Z,9.10
2023-02-16T11:42:06.120Z,9.10
2023-02-16T11:44:34.521Z,9.00
2023-02-16T11:47:08.836Z,9.10
2023-02-16T11:49:41.937Z,9.00
2023-02-16T11:52:38.255Z,9.00
2023-02-16T11:55:19.735Z,8.90
2023-02-16T11:57:47.252Z,8.80
2023-02-16T12:00:22.551Z,8.80
2023-02-16T12:03:08.125Z,8.70
2023-02-16T12:06:07.041Z,8.70
2023-02-16T12:09:19.062Z,8.70
2023-02-16T12:12:26.985Z,8.80
2023-02-16T12:15:06.987Z,9.00
2023-02-16T12:18:07.227Z,8.90
2023-02-16T12:21:03.180Z,8.90
2023-02-16T12:23:53.989Z,9.00
2023-02-16T12:26:38.381Z,9.00
2023-02-16T12:29:23.992Z,9.20
2023-02-16T12:32:12.461Z,9.10
2023-02-16T12:35:09.537Z,9.10
2023-02-16T12:37:49.137Z,9.30
2023-02-16T12:40:42.965Z,9.40
2023-02-16T12:43:34.509Z,9.40
2023-02-16T12:46:17.607Z,9.40
2023-02-16T12:48:53.915Z,9.50
2023-02-16T12:51:32.618Z,9.50
2023-02-16T12:54:17.441Z,9.40
2023-02-16T12:57:09.295Z,9.60
2023-02-16T12:59:46.189Z,9.60
2023-02-16T13:02:40.386Z,9.70
2023-02-16T13:05:31.230Z,9.80
2023-02-16T13:08:23.699Z,9.70
2023-02-16T13:11:19.339Z,9.80
2023-02-16T13:13:48.523Z,9.70
2023-02-16T13:16:43.464Z,9.50
2023-02-16T13:19:14.935Z,9.40
2023-02-16T13:21:53.728Z,9.40
2023-02-16T13:24:32.764Z,9.50
2023-02-16T13:27:31.401Z,9.50
2023-02-16T13:30:34.170Z,9.50
2023-02-16T13:33:37.735Z,9.50
2023-02-16T13:36:23.233Z,9.50
2023-02-16T13:39:20.936Z,9.50
2023-02-16T13:42:09.735Z,9.40
2023-02-16T13:44:46.676Z,9.40
2023-02-16T13:47:18.090Z,9.40
2023-02-16T13:49:46.407Z,9.40
2023-02-16T13:52:34.562Z,9.40
2023-02-16T13:55:04.278Z,9.40
2023-02-16T13:57:50.304Z,9.50
2023-02-16T14:00:38.265Z,9.40
2023-02-16T14:03:25.951Z,9.50
2023-02-16T14:05:55.993Z,9.50
2023-02-16T14:08:28.828Z,9.60
2023-02-16T14:10:59.598Z,9.70
2023-02-16T14:13:34.198Z,9.80
2023-02-16T14:16:26.620Z,9.90
2023-02-16T14:19:00.832Z,10.20
2023-02-16T14:21:41.251Z,10.20
2023-02-16T14:24:21.984Z,10.30
2023-02-16T14:27:01.847Z,10.20
2023-02-16T14:29:42.760Z,10.20
2023-02-16T14:32:10.303Z,10.00
2023-02-16T14:34:42.410Z,10.00
2023-02-16T14:37:16.954Z,10.00
2023-02-16T14:40:06.610Z,10.00
2023-02-16T14:42:35.869Z,9.90
2023-02-16T14:45:32.567Z,9.90
2023-02-16T14:48:14.118Z,9.90
2023-02-16T14:50:59.264Z,10.00
2023-02-16T14:53:47.483Z,10.00
2023-02-16T14:56:37.674Z,10.00
2023-02-16T14:59:40.628Z,9.90
2023-02-16T15:02:29.681Z,9.90
2023-02-16T15:04:56.924Z,9.80
2023-02-16T15:07:28.037Z,9.90
2023-02-16T15:09:58.109Z,9.80
2023-02-16T15:12:39.386Z,9.80
2023-02-16T15:15:13.469Z,9.70
2023-02-16T15:17:50.451Z,9.70
2023-02-16T15:20:31.490Z,9.70
2023-02-16T15:23:01.339Z,9.70
2023-02-16T15:25:40.146Z,9.60
2023-02-16T15:28:17.656Z,9.60
2023-02-16T15:30:48.968Z,9.60
2023-02-16T15:33:42.683Z,9.60
2023-02-16T15:36:13.502Z,9.60
2023-02-16T15:38:44.126Z,9.60
2023-02-16T15:41:15.413Z,9.60
2023-02-16T15:43:48.164Z,9.50
2023-02-16T15:46:31.651Z,9.40
2023-02-16T15:49:00.057Z,9.40
2023-02-16T15:51:31.560Z,9.40
2023-02-16T15:54:07.994Z,9.40
2023-02-16T15:56:45.853Z,9.40
2023-02-16T15:59:35.791Z,9.40
2023-02-16T16:02:06.913Z,9.40
2023-02-16T16:04:38.750Z,9.40
2023-02-16T16:07:08.345Z,9.40
2023-02-16T16:09:36.737Z,9.40
2023-02-16T16:12:06.791Z,9.40
2023-02-16T16:14:36.512Z,9.30
2023-02-16T16:17:04.333Z,9.30
2023-02-16T16:19:35.749Z,9.30
2023-02-16T16:22:04.431Z,9.30
2023-02-16T16:24:38.972Z,9.30
2023-02-16T16:27:11.734Z,9.20
2023-02-16T16:29:47.494Z,9.20
2023-02-16T16:32:23.466Z,9.10
2023-02-16T16:34:52.055Z,9.10
2023-02-16T16:37:33.221Z,9.10
2023-02-16T16:40:19.899Z,9.00
2023-02-16T16:43:04.905Z,9.00
2023-02-16T16:45:40.716Z,9.00
2023-02-16T16:48:35.984Z,9.00
2023-02-16T16:51:21.180Z,9.00
2023-02-16T16:53:52.196Z,9.00
2023-02-16T16:56:20.031Z,9.00
2023-02-16T16:58:52.138Z,9.00
2023-02-16T17:01:20.830Z,8.90
2023-02-16T17:03:47.728Z,8.90
2023-02-16T17:06:14.767Z,9.00
2023-02-16T17:08:42.199Z,8.90
2023-02-16T17:11:42.184Z,8.90
2023-02-16T17:14:17.704Z,8.90
2023-02-16T17:16:50.832Z,8.80
2023-02-16T17:19:21.054Z,8.80
2023-02-16T17:21:49.212Z,8.80
2023-02-16T17:24:16.439Z,8.70
2023-02-16T17:26:43.747Z,8.70
2023-02-16T17:29:10.688Z,8.80
2023-02-16T17:31:37.685Z,8.80
2023-02-16T17:34:04.586Z,8.80
2023-02-16T17:36:32.397Z,8.80
2023-02-16T17:38:59.313Z,8.90
2023-02-16T17:41:29.308Z,8.80
2023-02-16T17:43:56.319Z,8.80
2023-02-16T17:46:25.547Z,8.80
2023-02-16T17:48:55.133Z,8.80
2023-02-16T17:51:24.488Z,8.80
2023-02-16T17:53:51.927Z,8.70
2023-02-16T17:56:21.747Z,8.80
2023-02-16T17:58:50.641Z,8.80
2023-02-16T18:01:18.931Z,8.80
2023-02-16T18:03:45.977Z,8.90
2023-02-16T18:06:15.975Z,8.90
2023-02-16T18:08:43.845Z,8.90
2023-02-16T18:11:13.062Z,8.90
2023-02-16T18:13:40.481Z,8.80
2023-02-16T18:16:08.450Z,8.90
2023-02-16T18:18:39.532Z,8.90
2023-02-16T18:21:07.377Z,8.90
2023-02-16T18:23:35.056Z,8.90
2023-02-16T18:26:03.224Z,8.90
2023-02-16T18:28:32.876Z,8.90
2023-02-16T18:31:00.864Z,9.00
2023-02-16T18:33:27.966Z,9.00
2023-02-16T18:35:58.073Z,8.90
2023-02-16T18:38:27.140Z,9.00
2023-02-16T18:40:55.802Z,9.00
2023-02-16T18:43:23.226Z,9.00
2023-02-16T18:45:50.481Z,9.10
2023-02-16T18:48:17.601Z,9.00
2023-02-16T18:50:44.802Z,9.10
2023-02-16T18:53:11.706Z,9.00
2023-02-16T18:55:38.763Z,9.00
2023-02-16T18:58:08.261Z,9.00
2023-02-16T19:00:36.685Z,9.00
2023-02-16T19:03:03.985Z,9.00
2023-02-16T19:05:31.262Z,9.00
2023-02-16T19:07:58.694Z,9.10
2023-02-16T19:10:25.702Z,9.10
2023-02-16T19:12:52.882Z,9.10
2023-02-16T19:15:19.981Z,9.10
2023-02-16T19:17:48.063Z,9.10
2023-02-16T19:20:19.006Z,9.10
2023-02-16T19:22:46.924Z,9.20
2023-02-16T19:25:15.110Z,9.20
2023-02-16T19:27:43.003Z,9.20
2023-02-16T19:30:11.379Z,9.20
2023-02-16T19:32:41.021Z,9.20
2023-02-16T19:35:12.063Z,9.20
2023-02-16T19:37:40.300Z,9.30
2023-02-16T19:40:09.176Z,9.40
2023-02-16T19:42:37.509Z,9.40
2023-02-16T19:45:05.022Z,9.40
2023-02-16T19:47:31.944Z,9.40
2023-02-16T19:49:58.843Z,9.40
2023-02-16T19:52:25.775Z,9.40
2023-02-16T19:54:53.388Z,9.30
2023-02-16T19:57:21.451Z,9.40
2023-02-16T19:59:48.333Z,9.40
2023-02-16T20:02:15.719Z,9.40
2023-02-16T20:04:43.803Z,9.40
2023-02-16T20:07:10.784Z,9.40
2023-02-16T20:09:37.902Z,9.30
2023-02-16T20:12:06.869Z,9.10
2023-02-16T20:14:34.039Z,8.90
2023-02-16T20:17:00.859Z,8.80
2023-02-16T20:19:27.741Z,8.80
2023-02-16T20:21:54.663Z,8.70
2023-02-16T20:24:21.599Z,8.70
2023-02-16T20:26:51.264Z,8.60
2023-02-16T20:29:18.180Z,8.70
2023-02-16T20:31:54.705Z,8.60
2023-02-16T20:34:22.387Z,8.50
2023-02-16T20:36:49.496Z,8.40
2023-02-16T20:39:16.406Z,8.40
2023-02-16T20:41:43.492Z,8.30
2023-02-16T20:44:11.476Z,8.30
2023-02-16T20:46:39.898Z,8.20
2023-02-16T20:49:06.992Z,8.20
2023-02-16T20:51:35.180Z,8.10
2023-02-16T20:54:03.124Z,8.10
2023-02-16T20:56:30.206Z,8.10
2023-02-16T20:58:57.712Z,8.10
2023-02-16T21:01:31.365Z,8.00
2023-02-16T21:03:59.700Z,8.00
2023-02-16T21:06:28.398Z,8.00
2023-02-16T21:08:56.396Z,7.90
2023-02-16T21:11:23.603Z,7.80
2023-02-16T21:13:50.565Z,7.90
2023-02-16T21:16:18.175Z,7.90
2023-02-16T21:18:45.106Z,7.90
2023-02-16T21:21:18.199Z,7.90
2023-02-16T21:23:48.215Z,7.90
2023-02-16T21:26:16.536Z,7.80
2023-02-16T21:28:43.768Z,7.90
2023-02-16T21:31:15.837Z,7.90
2023-02-16T21:33:43.102Z,7.90
2023-02-16T21:36:15.681Z,7.90
2023-02-16T21:38:43.419Z,7.90
2023-02-16T21:41:25.725Z,7.90
2023-02-16T21:43:54.005Z,7.90
2023-02-16T21:46:21.785Z,7.90
2023-02-16T21:48:50.107Z,7.90
2023-02-16T21:51:20.181Z,7.90
2023-02-16T21:53:48.031Z,7.80
2023-02-16T21:56:36.877Z,7.80
2023-02-16T21:59:05.454Z,7.90
2023-02-16T22:01:35.397Z,7.90
2023-02-16T22:04:03.852Z,7.90
2023-02-16T22:06:37.605Z,7.90
2023-02-16T22:09:11.199Z,7.90
2023-02-16T22:11:39.120Z,7.90
2023-02-16T22:14:06.313Z,8.00
2023-02-16T22:16:35.647Z,8.00
2023-02-16T22:19:08.722Z,7.90
2023-02-16T22:21:37.609Z,8.00
2023-02-16T22:24:05.310Z,8.00
2023-02-16T22:26:35.037Z,8.00
2023-02-16T22:29:04.430Z,8.00
2023-02-16T22:31:32.179Z,8.00
2023-02-16T22:34:11.588Z,8.00
2023-02-16T22:36:38.778Z,8.00
2023-02-16T22:39:06.313Z,8.00
2023-02-16T22:41:34.256Z,8.00
2023-02-16T22:44:01.273Z,7.90
2023-02-16T22:46:28.960Z,8.00
2023-02-16T22:48:58.642Z,8.10
2023-02-16T22:51:27.670Z,8.20
2023-02-16T22:53:55.055Z,8.10
2023-02-16T22:56:21.962Z,8.10
2023-02-16T22:58:49.007Z,8.20
2023-02-16T23:01:18.802Z,8.10
2023-02-16T23:03:53.665Z,8.20
2023-02-16T23:06:24.250Z,8.20
2023-02-16T23:08:53.739Z,8.20
2023-02-16T23:11:20.901Z,8.30
2023-02-16T23:13:48.101Z,8.30
2023-02-16T23:16:18.491Z,8.30
2023-02-16T23:18:46.240Z,8.30
2023-02-16T23:21:26.036Z,8.30
2023-02-16T23:23:54.585Z,8.30
2023-02-16T23:26:23.612Z,8.30
2023-02-16T23:28:52.935Z,8.30
2023-02-16T23:31:20.640Z,8.30
2023-02-16T23:33:48.041Z,8.40
2023-02-16T23:36:15.213Z,8.40
2023-02-16T23:38:42.484Z,8.30
2023-02-16T23:41:12.387Z,8.40
2023-02-16T23:43:39.906Z,8.40
2023-02-16T23:46:08.094Z,8.40
2023-02-16T23:48:35.397Z,8.40
2023-02-16T23:51:02.417Z,8.40
2023-02-16T23:53:29.557Z,8.40
2023-02-16T23:56:00.702Z,8.40
2023-02-16T23:58:33.505Z,8.50
